Charleville Airport

Current Flights

Departures
Number Departure To Airline
 ZL5662 10:55 +20  Quilpie  REX (Regional Express)
 QF2580 11:20  Brisbane  Qantas
 ZL5661 14:40  Toowoomba  REX (Regional Express)
Arrivals
Number Arrival From Airline
 QF2579 11:00  Brisbane  Qantas
 ZL5661 14:20  Quilpie  REX (Regional Express)
Info
Name: Charleville Airport
Identifier:  CTL/YBCV
Local Time:  20. Jun 11:15
City
Charleville
  Australia

Flights per Day
2 flights
Distance: 440km (273mi)
Punctuality
78% (0 flights per day delayed)
Delay Average: 9 minutes
Current Weather
  9kt (16km/h / 10mph) from 120°
  9km (6 mi.)
 METAR YBCV 200000Z AUTO 12009KT 9999 // NCD 12/M01 Q1024

Current Delays

Departures
N/A
Arrivals
N/A

Destinations

Top Destinations
Airport Flights
per week
Seats
per week
  Brisbane (BNE) 8 420 1 60
  Roma (RMA) 5 287 0 41
  Toowoomba (WTB) 3 134 0 19
  Quilpie (ULP) 0 7 0 1

Airlines & Planes

Top Airlines
Airline Flights
per Day
Seats
per Day
Euro-Asia Air 1 63
  Eastern Australia Airlines 0 36
  REX (Regional Express) 0 21
Top Plane Types
Model Flights Seats
Bombardier Dash 8-300 2.0/day 100/day 100
Saab 340 0.6/day 21/day 21.533333333333335